Airfield :
LOGIN :

Register | Disclaimer

   EN    FR    IT 

 










Legend :    VFR   Marginal VFR   IFR   Intensive IFR   Very Intensive IFR
Visi :
Ceiling :
>= 8 km
>= 3000ft
5 to 8 km
1000 to 3000 ft
1500m to 5 km
500 to 1000 ft
800 to 1500m
200 to 500 ft
< 800m
< 200 ft
Symbols :   Thunderstorms  Fog  Heavy snow  Heavy precipitations  Wind > 20 kt
SIGMETs :     Misc.  Thunderstorms  Icing  Turbulence  Mountain Waves  Volcanic Ashes






- Airport Elevation : 76 ft
- IATA code : KID


ESMK - Kristianstad

CURRENT METAR :
  • 211850Z 11010KT 9999 FEW005 BKN008 OVC010 08/07 Q1014

EXPIRED METARs :
  • 211820Z 11011KT 6000 FEW006 SCT008 OVC010 08/07 Q1015
  • 211750Z 10011KT 4200 BR FEW007 OVC009 08/07 Q1015
  • 211720Z 11011KT 9999 FEW009 OVC010 08/07 Q1015
  • 211650Z 10010KT 9999 FEW005 SCT007 OVC008 08/07 Q1015
  • 211620Z 11010KT 8000 FEW003 BKN006 OVC007 08/08 Q1015

TAF TAF ESMK
Valid from the 21 at 18:00 until the 21 at 21:00 UTC


211700Z 2118/2121 12010KT 8000 BKN012
TEMPO 2118/2121 2000 -RADZ BR BKN004



MET'MAP, your aeronautical weather chart ! - Copyright ORBIFLY December 2007 - Disclaimer

ORBIFLY MET'MAP TEAM :

Programming & Development : Alexandra Zaïnal
Concept & Development : Baudouin d'Aumeries
Co-Development & Prog : Marc-Olivier Méhu
Technical & hardware support : Manuel Goepfert

Contact : metmap@orbifly.com




SOURCES & CREDITS :

   NOAA